sensor_id;sensor_type;location;lat;lon;timestamp;P1;durP1;ratioP1;P2;durP2;ratioP2
66546;SDS011;53400;50.364;14.874;2024-01-27T00:00:37;9.45;;;2.00;;
66546;SDS011;53400;50.364;14.874;2024-01-27T00:03:23;4.90;;;1.30;;
66546;SDS011;53400;50.364;14.874;2024-01-27T00:05:49;7.53;;;1.33;;
66546;SDS011;53400;50.364;14.874;2024-01-27T00:08:16;4.55;;;1.33;;
66546;SDS011;53400;50.364;14.874;2024-01-27T00:10:42;7.28;;;1.90;;
66546;SDS011;53400;50.364;14.874;2024-01-27T00:13:11;5.32;;;1.60;;
66546;SDS011;53400;50.364;14.874;2024-01-27T00:15:39;7.47;;;1.30;;
66546;SDS011;53400;50.364;14.874;2024-01-27T00:18:07;8.43;;;1.45;;
66546;SDS011;53400;50.364;14.874;2024-01-27T00:20:33;4.10;;;1.25;;
66546;SDS011;53400;50.364;14.874;2024-01-27T00:22:59;5.03;;;1.10;;
66546;SDS011;53400;50.364;14.874;2024-01-27T00:25:26;6.10;;;1.35;;
66546;SDS011;53400;50.364;14.874;2024-01-27T00:27:58;4.82;;;1.58;;
66546;SDS011;53400;50.364;14.874;2024-01-27T00:30:25;6.43;;;1.30;;
66546;SDS011;53400;50.364;14.874;2024-01-27T00:32:53;6.90;;;1.67;;
66546;SDS011;53400;50.364;14.874;2024-01-27T00:35:19;5.05;;;1.40;;
66546;SDS011;53400;50.364;14.874;2024-01-27T00:37:45;5.65;;;1.60;;
66546;SDS011;53400;50.364;14.874;2024-01-27T00:40:23;5.72;;;1.70;;
66546;SDS011;53400;50.364;14.874;2024-01-27T00:42:50;7.25;;;2.17;;
66546;SDS011;53400;50.364;14.874;2024-01-27T00:45:16;4.35;;;1.42;;
66546;SDS011;53400;50.364;14.874;2024-01-27T00:47:42;6.82;;;1.67;;
66546;SDS011;53400;50.364;14.874;2024-01-27T00:50:09;5.97;;;1.75;;
66546;SDS011;53400;50.364;14.874;2024-01-27T00:52:36;7.70;;;1.70;;
66546;SDS011;53400;50.364;14.874;2024-01-27T00:55:03;7.45;;;2.25;;
66546;SDS011;53400;50.364;14.874;2024-01-27T00:57:30;4.90;;;1.60;;
66546;SDS011;53400;50.364;14.874;2024-01-27T01:00:03;5.70;;;1.30;;
66546;SDS011;53400;50.364;14.874;2024-01-27T01:02:33;3.80;;;1.58;;
66546;SDS011;53400;50.364;14.874;2024-01-27T01:04:59;4.90;;;1.70;;
66546;SDS011;53400;50.364;14.874;2024-01-27T01:07:27;6.95;;;1.65;;
66546;SDS011;53400;50.364;14.874;2024-01-27T01:09:56;6.07;;;1.40;;
66546;SDS011;53400;50.364;14.874;2024-01-27T01:12:24;6.90;;;1.77;;
66546;SDS011;53400;50.364;14.874;2024-01-27T01:14:53;5.85;;;1.48;;
66546;SDS011;53400;50.364;14.874;2024-01-27T01:17:20;4.88;;;1.30;;
66546;SDS011;53400;50.364;14.874;2024-01-27T01:20:03;7.22;;;2.00;;
66546;SDS011;53400;50.364;14.874;2024-01-27T01:22:32;9.15;;;2.05;;
66546;SDS011;53400;50.364;14.874;2024-01-27T01:24:58;6.45;;;2.03;;
66546;SDS011;53400;50.364;14.874;2024-01-27T01:27:24;4.07;;;1.23;;
66546;SDS011;53400;50.364;14.874;2024-01-27T01:29:51;4.65;;;1.55;;
66546;SDS011;53400;50.364;14.874;2024-01-27T01:32:18;6.53;;;1.88;;
66546;SDS011;53400;50.364;14.874;2024-01-27T01:34:45;7.85;;;1.85;;
66546;SDS011;53400;50.364;14.874;2024-01-27T01:37:12;5.68;;;1.60;;
66546;SDS011;53400;50.364;14.874;2024-01-27T01:39:40;5.20;;;1.60;;
66546;SDS011;53400;50.364;14.874;2024-01-27T01:42:06;3.58;;;1.50;;
66546;SDS011;53400;50.364;14.874;2024-01-27T01:44:33;4.93;;;1.80;;
66546;SDS011;53400;50.364;14.874;2024-01-27T01:46:59;4.55;;;1.70;;
66546;SDS011;53400;50.364;14.874;2024-01-27T01:49:25;4.18;;;1.40;;
66546;SDS011;53400;50.364;14.874;2024-01-27T01:51:52;6.55;;;1.60;;
66546;SDS011;53400;50.364;14.874;2024-01-27T01:54:19;3.25;;;1.20;;
66546;SDS011;53400;50.364;14.874;2024-01-27T01:56:49;4.25;;;1.30;;
66546;SDS011;53400;50.364;14.874;2024-01-27T01:59:16;6.45;;;1.42;;
66546;SDS011;53400;50.364;14.874;2024-01-27T02:01:42;3.50;;;1.10;;
66546;SDS011;53400;50.364;14.874;2024-01-27T02:04:08;6.97;;;1.35;;
66546;SDS011;53400;50.364;14.874;2024-01-27T02:06:35;4.38;;;1.10;;
66546;SDS011;53400;50.364;14.874;2024-01-27T02:09:00;3.67;;;1.25;;
66546;SDS011;53400;50.364;14.874;2024-01-27T02:11:27;6.68;;;1.50;;
66546;SDS011;53400;50.364;14.874;2024-01-27T02:13:55;6.80;;;1.15;;
66546;SDS011;53400;50.364;14.874;2024-01-27T02:16:31;2.72;;;1.00;;
66546;SDS011;53400;50.364;14.874;2024-01-27T02:18:57;5.70;;;1.27;;
66546;SDS011;53400;50.364;14.874;2024-01-27T02:21:26;3.75;;;1.20;;
66546;SDS011;53400;50.364;14.874;2024-01-27T02:23:54;4.03;;;1.10;;
66546;SDS011;53400;50.364;14.874;2024-01-27T02:26:25;4.82;;;1.95;;
66546;SDS011;53400;50.364;14.874;2024-01-27T02:28:51;2.40;;;1.08;;
66546;SDS011;53400;50.364;14.874;2024-01-27T02:31:17;2.60;;;1.00;;
66546;SDS011;53400;50.364;14.874;2024-01-27T02:33:43;3.78;;;1.10;;
66546;SDS011;53400;50.364;14.874;2024-01-27T02:36:09;5.57;;;1.33;;
66546;SDS011;53400;50.364;14.874;2024-01-27T02:38:35;5.28;;;1.17;;
66546;SDS011;53400;50.364;14.874;2024-01-27T02:41:02;4.72;;;1.00;;
66546;SDS011;53400;50.364;14.874;2024-01-27T02:43:29;2.97;;;0.90;;
66546;SDS011;53400;50.364;14.874;2024-01-27T02:45:55;4.32;;;1.08;;
66546;SDS011;53400;50.364;14.874;2024-01-27T02:48:26;4.90;;;1.00;;
66546;SDS011;53400;50.364;14.874;2024-01-27T02:50:53;3.35;;;1.02;;
66546;SDS011;53400;50.364;14.874;2024-01-27T02:53:18;4.65;;;1.00;;
66546;SDS011;53400;50.364;14.874;2024-01-27T02:55:45;3.03;;;1.00;;
66546;SDS011;53400;50.364;14.874;2024-01-27T02:58:11;5.38;;;1.10;;
66546;SDS011;53400;50.364;14.874;2024-01-27T03:00:39;5.65;;;1.17;;
66546;SDS011;53400;50.364;14.874;2024-01-27T03:03:06;3.97;;;1.38;;
66546;SDS011;53400;50.364;14.874;2024-01-27T03:05:32;5.45;;;1.08;;
66546;SDS011;53400;50.364;14.874;2024-01-27T03:07:58;3.47;;;1.08;;
66546;SDS011;53400;50.364;14.874;2024-01-27T03:10:25;6.47;;;1.08;;
66546;SDS011;53400;50.364;14.874;2024-01-27T03:12:51;6.32;;;1.30;;
66546;SDS011;53400;50.364;14.874;2024-01-27T03:15:17;2.80;;;1.23;;
66546;SDS011;53400;50.364;14.874;2024-01-27T03:17:45;4.03;;;1.15;;
66546;SDS011;53400;50.364;14.874;2024-01-27T03:20:13;4.28;;;1.00;;
66546;SDS011;53400;50.364;14.874;2024-01-27T03:22:39;4.63;;;1.10;;
66546;SDS011;53400;50.364;14.874;2024-01-27T03:25:07;7.53;;;1.35;;
66546;SDS011;53400;50.364;14.874;2024-01-27T03:27:34;5.70;;;1.20;;
66546;SDS011;53400;50.364;14.874;2024-01-27T03:30:01;5.45;;;1.25;;
66546;SDS011;53400;50.364;14.874;2024-01-27T03:32:29;5.22;;;1.10;;
66546;SDS011;53400;50.364;14.874;2024-01-27T03:34:58;7.35;;;1.83;;
66546;SDS011;53400;50.364;14.874;2024-01-27T03:37:24;6.72;;;1.20;;
66546;SDS011;53400;50.364;14.874;2024-01-27T03:39:51;6.95;;;1.80;;
66546;SDS011;53400;50.364;14.874;2024-01-27T03:42:18;6.20;;;1.27;;
66546;SDS011;53400;50.364;14.874;2024-01-27T03:44:44;6.22;;;2.08;;
66546;SDS011;53400;50.364;14.874;2024-01-27T03:47:10;5.07;;;1.40;;
66546;SDS011;53400;50.364;14.874;2024-01-27T03:49:36;4.43;;;1.20;;
66546;SDS011;53400;50.364;14.874;2024-01-27T03:52:04;4.28;;;1.20;;
66546;SDS011;53400;50.364;14.874;2024-01-27T03:54:31;4.53;;;1.10;;
66546;SDS011;53400;50.364;14.874;2024-01-27T03:56:57;5.38;;;1.40;;
66546;SDS011;53400;50.364;14.874;2024-01-27T03:59:23;4.18;;;1.10;;
66546;SDS011;53400;50.364;14.874;2024-01-27T04:01:59;5.35;;;1.58;;
66546;SDS011;53400;50.364;14.874;2024-01-27T04:04:29;6.57;;;1.63;;
66546;SDS011;53400;50.364;14.874;2024-01-27T04:06:54;5.32;;;1.20;;
66546;SDS011;53400;50.364;14.874;2024-01-27T04:09:25;4.72;;;1.25;;
66546;SDS011;53400;50.364;14.874;2024-01-27T04:11:55;3.85;;;1.00;;
66546;SDS011;53400;50.364;14.874;2024-01-27T04:14:23;4.32;;;1.17;;
66546;SDS011;53400;50.364;14.874;2024-01-27T04:16:49;5.72;;;1.20;;
66546;SDS011;53400;50.364;14.874;2024-01-27T04:19:15;4.85;;;1.00;;
66546;SDS011;53400;50.364;14.874;2024-01-27T04:21:41;5.78;;;1.45;;
66546;SDS011;53400;50.364;14.874;2024-01-27T04:24:09;4.72;;;1.10;;
66546;SDS011;53400;50.364;14.874;2024-01-27T04:26:37;5.95;;;1.17;;
66546;SDS011;53400;50.364;14.874;2024-01-27T04:29:03;3.72;;;1.05;;
66546;SDS011;53400;50.364;14.874;2024-01-27T04:31:29;6.25;;;1.38;;
66546;SDS011;53400;50.364;14.874;2024-01-27T04:33:57;6.85;;;1.30;;
66546;SDS011;53400;50.364;14.874;2024-01-27T04:36:27;5.63;;;1.08;;
66546;SDS011;53400;50.364;14.874;2024-01-27T04:38:55;3.42;;;1.00;;
66546;SDS011;53400;50.364;14.874;2024-01-27T04:41:21;6.65;;;1.10;;
66546;SDS011;53400;50.364;14.874;2024-01-27T04:43:51;4.22;;;1.20;;
66546;SDS011;53400;50.364;14.874;2024-01-27T04:46:21;3.50;;;1.38;;
66546;SDS011;53400;50.364;14.874;2024-01-27T04:48:48;6.00;;;1.15;;
66546;SDS011;53400;50.364;14.874;2024-01-27T04:51:17;8.50;;;1.65;;
66546;SDS011;53400;50.364;14.874;2024-01-27T04:53:43;6.22;;;1.25;;
66546;SDS011;53400;50.364;14.874;2024-01-27T04:56:12;5.50;;;1.05;;
66546;SDS011;53400;50.364;14.874;2024-01-27T04:58:38;3.75;;;0.98;;
66546;SDS011;53400;50.364;14.874;2024-01-27T05:01:05;7.47;;;1.35;;
66546;SDS011;53400;50.364;14.874;2024-01-27T05:03:32;7.03;;;1.30;;
66546;SDS011;53400;50.364;14.874;2024-01-27T05:06:03;6.15;;;1.23;;
66546;SDS011;53400;50.364;14.874;2024-01-27T05:08:33;6.63;;;1.15;;
66546;SDS011;53400;50.364;14.874;2024-01-27T05:11:00;4.82;;;0.95;;
66546;SDS011;53400;50.364;14.874;2024-01-27T05:13:27;4.82;;;1.08;;
66546;SDS011;53400;50.364;14.874;2024-01-27T05:15:53;7.75;;;1.73;;
66546;SDS011;53400;50.364;14.874;2024-01-27T05:18:26;7.30;;;1.65;;
66546;SDS011;53400;50.364;14.874;2024-01-27T05:20:52;4.60;;;1.17;;
66546;SDS011;53400;50.364;14.874;2024-01-27T05:23:18;3.70;;;1.10;;
66546;SDS011;53400;50.364;14.874;2024-01-27T05:25:44;4.47;;;1.00;;
66546;SDS011;53400;50.364;14.874;2024-01-27T05:28:10;3.83;;;1.13;;
66546;SDS011;53400;50.364;14.874;2024-01-27T05:30:36;10.60;;;1.75;;
66546;SDS011;53400;50.364;14.874;2024-01-27T05:33:02;5.60;;;1.35;;
66546;SDS011;53400;50.364;14.874;2024-01-27T05:35:30;5.70;;;1.40;;
66546;SDS011;53400;50.364;14.874;2024-01-27T05:37:57;3.75;;;0.98;;
66546;SDS011;53400;50.364;14.874;2024-01-27T05:40:23;6.53;;;1.63;;
66546;SDS011;53400;50.364;14.874;2024-01-27T05:42:49;6.97;;;1.50;;
66546;SDS011;53400;50.364;14.874;2024-01-27T05:45:16;6.50;;;1.70;;
66546;SDS011;53400;50.364;14.874;2024-01-27T05:47:42;9.15;;;1.50;;
66546;SDS011;53400;50.364;14.874;2024-01-27T05:50:08;8.07;;;1.65;;
66546;SDS011;53400;50.364;14.874;2024-01-27T05:52:37;7.30;;;1.77;;
66546;SDS011;53400;50.364;14.874;2024-01-27T05:55:03;6.22;;;1.45;;
66546;SDS011;53400;50.364;14.874;2024-01-27T05:57:32;6.30;;;1.52;;
66546;SDS011;53400;50.364;14.874;2024-01-27T05:59:58;5.00;;;1.60;;
66546;SDS011;53400;50.364;14.874;2024-01-27T06:02:24;8.48;;;1.88;;
66546;SDS011;53400;50.364;14.874;2024-01-27T06:04:50;7.25;;;1.70;;
66546;SDS011;53400;50.364;14.874;2024-01-27T06:07:17;6.18;;;1.67;;
66546;SDS011;53400;50.364;14.874;2024-01-27T06:09:52;6.22;;;1.40;;
66546;SDS011;53400;50.364;14.874;2024-01-27T06:12:21;7.80;;;1.52;;
66546;SDS011;53400;50.364;14.874;2024-01-27T06:14:47;9.10;;;2.47;;
66546;SDS011;53400;50.364;14.874;2024-01-27T06:17:14;7.65;;;2.05;;
66546;SDS011;53400;50.364;14.874;2024-01-27T06:19:41;8.23;;;2.00;;
66546;SDS011;53400;50.364;14.874;2024-01-27T06:22:08;6.00;;;1.60;;
66546;SDS011;53400;50.364;14.874;2024-01-27T06:24:34;8.10;;;1.50;;
66546;SDS011;53400;50.364;14.874;2024-01-27T06:27:01;10.10;;;1.40;;
66546;SDS011;53400;50.364;14.874;2024-01-27T06:29:28;4.60;;;1.52;;
66546;SDS011;53400;50.364;14.874;2024-01-27T06:31:55;5.93;;;1.50;;
66546;SDS011;53400;50.364;14.874;2024-01-27T06:34:21;7.10;;;1.60;;
66546;SDS011;53400;50.364;14.874;2024-01-27T06:36:47;10.30;;;1.85;;
66546;SDS011;53400;50.364;14.874;2024-01-27T06:39:13;10.02;;;1.98;;
66546;SDS011;53400;50.364;14.874;2024-01-27T06:41:40;5.38;;;1.65;;
66546;SDS011;53400;50.364;14.874;2024-01-27T06:44:09;5.53;;;1.60;;
66546;SDS011;53400;50.364;14.874;2024-01-27T06:46:35;6.75;;;1.52;;
66546;SDS011;53400;50.364;14.874;2024-01-27T06:49:01;5.68;;;1.67;;
66546;SDS011;53400;50.364;14.874;2024-01-27T06:51:28;6.45;;;1.48;;
66546;SDS011;53400;50.364;14.874;2024-01-27T06:53:58;5.38;;;1.50;;
66546;SDS011;53400;50.364;14.874;2024-01-27T06:56:24;5.68;;;1.70;;
66546;SDS011;53400;50.364;14.874;2024-01-27T06:58:50;4.88;;;1.40;;
66546;SDS011;53400;50.364;14.874;2024-01-27T07:01:18;4.75;;;1.50;;
66546;SDS011;53400;50.364;14.874;2024-01-27T07:03:44;8.30;;;1.88;;
66546;SDS011;53400;50.364;14.874;2024-01-27T07:06:11;5.50;;;1.65;;
66546;SDS011;53400;50.364;14.874;2024-01-27T07:08:37;5.68;;;1.50;;
66546;SDS011;53400;50.364;14.874;2024-01-27T07:11:03;8.43;;;1.60;;
66546;SDS011;53400;50.364;14.874;2024-01-27T07:13:29;11.05;;;2.72;;
66546;SDS011;53400;50.364;14.874;2024-01-27T07:15:56;8.20;;;1.70;;
66546;SDS011;53400;50.364;14.874;2024-01-27T07:18:27;8.25;;;1.85;;
66546;SDS011;53400;50.364;14.874;2024-01-27T07:20:54;8.15;;;1.70;;
66546;SDS011;53400;50.364;14.874;2024-01-27T07:23:20;6.70;;;1.20;;
66546;SDS011;53400;50.364;14.874;2024-01-27T07:25:50;6.85;;;1.83;;
66546;SDS011;53400;50.364;14.874;2024-01-27T07:28:17;4.53;;;1.13;;
66546;SDS011;53400;50.364;14.874;2024-01-27T07:30:44;4.75;;;1.38;;
66546;SDS011;53400;50.364;14.874;2024-01-27T07:33:10;5.72;;;1.90;;
66546;SDS011;53400;50.364;14.874;2024-01-27T07:35:38;8.15;;;2.00;;
66546;SDS011;53400;50.364;14.874;2024-01-27T07:38:03;4.50;;;1.55;;
66546;SDS011;53400;50.364;14.874;2024-01-27T07:40:29;8.85;;;2.03;;
66546;SDS011;53400;50.364;14.874;2024-01-27T07:42:55;9.45;;;2.05;;
66546;SDS011;53400;50.364;14.874;2024-01-27T07:45:21;9.25;;;1.80;;
66546;SDS011;53400;50.364;14.874;2024-01-27T07:47:50;8.70;;;1.60;;
66546;SDS011;53400;50.364;14.874;2024-01-27T07:50:21;7.95;;;1.55;;
66546;SDS011;53400;50.364;14.874;2024-01-27T07:52:50;6.47;;;1.80;;
66546;SDS011;53400;50.364;14.874;2024-01-27T07:55:16;12.15;;;2.00;;
66546;SDS011;53400;50.364;14.874;2024-01-27T07:57:42;6.85;;;2.28;;
66546;SDS011;53400;50.364;14.874;2024-01-27T08:00:09;7.25;;;2.00;;
66546;SDS011;53400;50.364;14.874;2024-01-27T08:02:37;15.10;;;2.65;;
66546;SDS011;53400;50.364;14.874;2024-01-27T08:05:03;8.30;;;1.90;;
66546;SDS011;53400;50.364;14.874;2024-01-27T08:07:30;8.00;;;2.05;;
66546;SDS011;53400;50.364;14.874;2024-01-27T08:09:58;8.90;;;2.45;;
66546;SDS011;53400;50.364;14.874;2024-01-27T08:12:24;6.63;;;2.03;;
66546;SDS011;53400;50.364;14.874;2024-01-27T08:14:51;9.10;;;2.20;;
66546;SDS011;53400;50.364;14.874;2024-01-27T08:17:21;7.55;;;1.98;;
66546;SDS011;53400;50.364;14.874;2024-01-27T08:19:53;9.93;;;2.55;;
66546;SDS011;53400;50.364;14.874;2024-01-27T08:22:30;7.57;;;1.90;;
66546;SDS011;53400;50.364;14.874;2024-01-27T08:24:58;7.32;;;2.05;;
66546;SDS011;53400;50.364;14.874;2024-01-27T08:27:24;7.03;;;2.25;;
66546;SDS011;53400;50.364;14.874;2024-01-27T08:29:55;10.55;;;2.42;;
66546;SDS011;53400;50.364;14.874;2024-01-27T08:32:23;9.73;;;2.42;;
66546;SDS011;53400;50.364;14.874;2024-01-27T08:34:50;8.90;;;2.03;;
66546;SDS011;53400;50.364;14.874;2024-01-27T08:37:17;8.02;;;2.20;;
66546;SDS011;53400;50.364;14.874;2024-01-27T08:39:45;11.32;;;2.50;;
66546;SDS011;53400;50.364;14.874;2024-01-27T08:42:13;10.70;;;1.90;;
66546;SDS011;53400;50.364;14.874;2024-01-27T08:44:40;11.85;;;2.75;;
66546;SDS011;53400;50.364;14.874;2024-01-27T08:47:06;10.75;;;2.10;;
66546;SDS011;53400;50.364;14.874;2024-01-27T08:49:32;9.85;;;2.20;;
66546;SDS011;53400;50.364;14.874;2024-01-27T08:52:00;10.85;;;2.20;;
66546;SDS011;53400;50.364;14.874;2024-01-27T08:54:34;9.93;;;2.00;;
66546;SDS011;53400;50.364;14.874;2024-01-27T08:57:00;8.48;;;1.77;;
66546;SDS011;53400;50.364;14.874;2024-01-27T08:59:29;9.38;;;2.70;;
66546;SDS011;53400;50.364;14.874;2024-01-27T09:01:57;7.03;;;1.95;;
66546;SDS011;53400;50.364;14.874;2024-01-27T09:04:25;9.82;;;1.75;;
66546;SDS011;53400;50.364;14.874;2024-01-27T09:06:51;7.03;;;1.90;;
66546;SDS011;53400;50.364;14.874;2024-01-27T09:09:18;10.93;;;2.58;;
66546;SDS011;53400;50.364;14.874;2024-01-27T09:11:44;5.68;;;1.60;;
66546;SDS011;53400;50.364;14.874;2024-01-27T09:14:18;12.30;;;1.90;;
66546;SDS011;53400;50.364;14.874;2024-01-27T09:16:48;13.30;;;2.70;;
66546;SDS011;53400;50.364;14.874;2024-01-27T09:19:14;7.85;;;1.98;;
66546;SDS011;53400;50.364;14.874;2024-01-27T09:21:40;6.57;;;2.40;;
66546;SDS011;53400;50.364;14.874;2024-01-27T09:24:09;7.82;;;2.38;;
66546;SDS011;53400;50.364;14.874;2024-01-27T09:26:35;11.10;;;2.22;;
66546;SDS011;53400;50.364;14.874;2024-01-27T09:29:01;7.00;;;2.17;;
66546;SDS011;53400;50.364;14.874;2024-01-27T09:31:27;7.63;;;1.80;;
66546;SDS011;53400;50.364;14.874;2024-01-27T09:33:56;5.22;;;1.83;;
66546;SDS011;53400;50.364;14.874;2024-01-27T09:36:23;8.75;;;2.03;;
66546;SDS011;53400;50.364;14.874;2024-01-27T09:38:50;16.10;;;4.55;;
66546;SDS011;53400;50.364;14.874;2024-01-27T09:41:17;7.68;;;2.33;;
66546;SDS011;53400;50.364;14.874;2024-01-27T09:43:44;6.82;;;2.28;;
66546;SDS011;53400;50.364;14.874;2024-01-27T09:46:17;5.18;;;1.55;;
66546;SDS011;53400;50.364;14.874;2024-01-27T09:48:44;6.13;;;1.80;;
66546;SDS011;53400;50.364;14.874;2024-01-27T09:51:11;7.82;;;2.13;;
66546;SDS011;53400;50.364;14.874;2024-01-27T09:53:38;6.32;;;1.83;;
66546;SDS011;53400;50.364;14.874;2024-01-27T09:56:04;8.05;;;2.03;;
66546;SDS011;53400;50.364;14.874;2024-01-27T09:58:33;7.43;;;1.95;;
66546;SDS011;53400;50.364;14.874;2024-01-27T10:01:00;7.15;;;1.92;;
66546;SDS011;53400;50.364;14.874;2024-01-27T10:03:27;8.20;;;2.03;;
66546;SDS011;53400;50.364;14.874;2024-01-27T10:05:55;5.82;;;2.10;;
66546;SDS011;53400;50.364;14.874;2024-01-27T10:08:25;11.80;;;2.47;;
66546;SDS011;53400;50.364;14.874;2024-01-27T10:10:53;6.57;;;2.40;;
66546;SDS011;53400;50.364;14.874;2024-01-27T10:13:21;9.32;;;2.42;;
66546;SDS011;53400;50.364;14.874;2024-01-27T10:16:00;9.82;;;2.33;;
66546;SDS011;53400;50.364;14.874;2024-01-27T10:18:29;8.85;;;2.25;;
66546;SDS011;53400;50.364;14.874;2024-01-27T10:20:55;9.07;;;2.25;;
66546;SDS011;53400;50.364;14.874;2024-01-27T10:23:22;10.30;;;2.10;;
66546;SDS011;53400;50.364;14.874;2024-01-27T10:25:50;6.43;;;2.00;;
66546;SDS011;53400;50.364;14.874;2024-01-27T10:28:20;8.63;;;2.20;;
66546;SDS011;53400;50.364;14.874;2024-01-27T10:30:48;6.45;;;1.88;;
66546;SDS011;53400;50.364;14.874;2024-01-27T10:33:14;10.27;;;2.30;;
66546;SDS011;53400;50.364;14.874;2024-01-27T10:35:40;9.98;;;2.65;;
66546;SDS011;53400;50.364;14.874;2024-01-27T10:38:07;10.23;;;2.45;;
66546;SDS011;53400;50.364;14.874;2024-01-27T10:40:35;7.18;;;2.03;;
66546;SDS011;53400;50.364;14.874;2024-01-27T10:43:03;7.35;;;2.45;;
66546;SDS011;53400;50.364;14.874;2024-01-27T10:45:34;12.05;;;2.53;;
66546;SDS011;53400;50.364;14.874;2024-01-27T10:48:08;8.88;;;2.70;;
66546;SDS011;53400;50.364;14.874;2024-01-27T10:50:39;7.32;;;2.60;;
66546;SDS011;53400;50.364;14.874;2024-01-27T10:53:09;11.50;;;2.53;;
66546;SDS011;53400;50.364;14.874;2024-01-27T10:55:46;7.78;;;2.50;;
66546;SDS011;53400;50.364;14.874;2024-01-27T10:58:21;6.65;;;2.65;;
66546;SDS011;53400;50.364;14.874;2024-01-27T11:00:48;10.07;;;2.50;;
66546;SDS011;53400;50.364;14.874;2024-01-27T11:03:17;8.77;;;2.45;;
66546;SDS011;53400;50.364;14.874;2024-01-27T11:05:45;6.85;;;2.25;;
66546;SDS011;53400;50.364;14.874;2024-01-27T11:08:16;7.88;;;2.50;;
66546;SDS011;53400;50.364;14.874;2024-01-27T11:10:43;9.20;;;2.50;;
66546;SDS011;53400;50.364;14.874;2024-01-27T11:13:10;18.55;;;3.30;;
66546;SDS011;53400;50.364;14.874;2024-01-27T11:15:38;13.48;;;3.10;;
66546;SDS011;53400;50.364;14.874;2024-01-27T11:18:04;8.85;;;2.63;;
66546;SDS011;53400;50.364;14.874;2024-01-27T11:20:31;8.32;;;2.75;;
66546;SDS011;53400;50.364;14.874;2024-01-27T11:23:08;5.70;;;2.50;;
66546;SDS011;53400;50.364;14.874;2024-01-27T11:25:34;8.80;;;2.83;;
66546;SDS011;53400;50.364;14.874;2024-01-27T11:28:10;10.18;;;2.63;;
66546;SDS011;53400;50.364;14.874;2024-01-27T11:30:44;10.40;;;3.13;;
66546;SDS011;53400;50.364;14.874;2024-01-27T11:33:12;11.15;;;2.63;;
66546;SDS011;53400;50.364;14.874;2024-01-27T11:35:38;9.75;;;3.40;;
66546;SDS011;53400;50.364;14.874;2024-01-27T11:38:04;9.57;;;2.72;;
66546;SDS011;53400;50.364;14.874;2024-01-27T11:40:30;8.80;;;2.70;;
66546;SDS011;53400;50.364;14.874;2024-01-27T11:42:57;15.38;;;3.00;;
66546;SDS011;53400;50.364;14.874;2024-01-27T11:45:24;7.78;;;2.17;;
66546;SDS011;53400;50.364;14.874;2024-01-27T11:47:52;7.47;;;2.38;;
66546;SDS011;53400;50.364;14.874;2024-01-27T11:50:19;7.15;;;2.40;;
66546;SDS011;53400;50.364;14.874;2024-01-27T11:52:46;7.38;;;2.35;;
66546;SDS011;53400;50.364;14.874;2024-01-27T11:55:12;9.25;;;3.08;;
66546;SDS011;53400;50.364;14.874;2024-01-27T11:57:40;10.32;;;2.80;;
66546;SDS011;53400;50.364;14.874;2024-01-27T12:00:07;11.98;;;2.80;;
66546;SDS011;53400;50.364;14.874;2024-01-27T12:02:37;8.77;;;2.88;;
66546;SDS011;53400;50.364;14.874;2024-01-27T12:05:05;10.57;;;3.22;;
66546;SDS011;53400;50.364;14.874;2024-01-27T12:07:32;7.57;;;2.95;;
66546;SDS011;53400;50.364;14.874;2024-01-27T12:09:58;13.75;;;3.47;;
66546;SDS011;53400;50.364;14.874;2024-01-27T12:12:27;9.15;;;2.90;;
66546;SDS011;53400;50.364;14.874;2024-01-27T12:14:54;8.38;;;3.53;;
66546;SDS011;53400;50.364;14.874;2024-01-27T12:17:20;8.95;;;2.38;;
66546;SDS011;53400;50.364;14.874;2024-01-27T12:19:46;9.77;;;3.00;;
66546;SDS011;53400;50.364;14.874;2024-01-27T12:22:24;9.85;;;2.60;;
66546;SDS011;53400;50.364;14.874;2024-01-27T12:24:54;9.85;;;3.13;;
66546;SDS011;53400;50.364;14.874;2024-01-27T12:27:21;8.35;;;3.17;;
66546;SDS011;53400;50.364;14.874;2024-01-27T12:29:48;9.90;;;3.33;;
66546;SDS011;53400;50.364;14.874;2024-01-27T12:32:23;6.50;;;2.63;;
66546;SDS011;53400;50.364;14.874;2024-01-27T12:34:50;9.23;;;3.60;;
66546;SDS011;53400;50.364;14.874;2024-01-27T12:37:16;10.73;;;3.60;;
66546;SDS011;53400;50.364;14.874;2024-01-27T12:39:43;9.98;;;3.08;;
66546;SDS011;53400;50.364;14.874;2024-01-27T12:42:12;9.43;;;3.38;;
66546;SDS011;53400;50.364;14.874;2024-01-27T12:44:38;9.90;;;2.92;;
66546;SDS011;53400;50.364;14.874;2024-01-27T12:47:05;10.35;;;3.03;;
66546;SDS011;53400;50.364;14.874;2024-01-27T12:49:32;11.25;;;3.70;;
66546;SDS011;53400;50.364;14.874;2024-01-27T12:52:07;11.70;;;3.22;;
66546;SDS011;53400;50.364;14.874;2024-01-27T12:54:34;11.32;;;2.92;;
66546;SDS011;53400;50.364;14.874;2024-01-27T12:57:01;9.65;;;3.28;;
66546;SDS011;53400;50.364;14.874;2024-01-27T12:59:28;9.93;;;3.42;;
66546;SDS011;53400;50.364;14.874;2024-01-27T13:01:56;11.63;;;3.22;;
66546;SDS011;53400;50.364;14.874;2024-01-27T13:04:29;8.85;;;2.97;;
66546;SDS011;53400;50.364;14.874;2024-01-27T13:06:54;9.52;;;2.75;;
66546;SDS011;53400;50.364;14.874;2024-01-27T13:09:24;9.93;;;3.38;;
66546;SDS011;53400;50.364;14.874;2024-01-27T13:11:53;10.60;;;3.20;;
66546;SDS011;53400;50.364;14.874;2024-01-27T13:14:25;10.43;;;3.42;;
66546;SDS011;53400;50.364;14.874;2024-01-27T13:16:51;13.23;;;3.67;;
66546;SDS011;53400;50.364;14.874;2024-01-27T13:19:19;10.15;;;3.75;;
66546;SDS011;53400;50.364;14.874;2024-01-27T13:21:45;12.20;;;3.80;;
66546;SDS011;53400;50.364;14.874;2024-01-27T13:24:12;12.52;;;4.05;;
66546;SDS011;53400;50.364;14.874;2024-01-27T13:26:41;12.43;;;3.40;;
66546;SDS011;53400;50.364;14.874;2024-01-27T13:29:08;9.20;;;4.35;;
66546;SDS011;53400;50.364;14.874;2024-01-27T13:31:35;10.43;;;3.78;;
66546;SDS011;53400;50.364;14.874;2024-01-27T13:34:02;9.82;;;3.28;;
66546;SDS011;53400;50.364;14.874;2024-01-27T13:36:28;7.20;;;3.08;;
66546;SDS011;53400;50.364;14.874;2024-01-27T13:38:54;8.65;;;2.92;;
66546;SDS011;53400;50.364;14.874;2024-01-27T13:41:20;7.72;;;3.20;;
66546;SDS011;53400;50.364;14.874;2024-01-27T13:43:56;10.32;;;3.50;;
66546;SDS011;53400;50.364;14.874;2024-01-27T13:46:25;11.55;;;3.25;;
66546;SDS011;53400;50.364;14.874;2024-01-27T13:48:53;9.95;;;3.47;;
66546;SDS011;53400;50.364;14.874;2024-01-27T13:51:19;10.82;;;3.85;;
66546;SDS011;53400;50.364;14.874;2024-01-27T13:53:45;11.85;;;3.00;;
66546;SDS011;53400;50.364;14.874;2024-01-27T13:56:11;12.15;;;3.55;;
66546;SDS011;53400;50.364;14.874;2024-01-27T13:58:38;13.63;;;5.32;;
66546;SDS011;53400;50.364;14.874;2024-01-27T14:01:04;8.57;;;3.45;;
66546;SDS011;53400;50.364;14.874;2024-01-27T14:03:32;9.02;;;3.55;;
66546;SDS011;53400;50.364;14.874;2024-01-27T14:06:00;11.50;;;3.63;;
66546;SDS011;53400;50.364;14.874;2024-01-27T14:08:29;9.95;;;3.88;;
66546;SDS011;53400;50.364;14.874;2024-01-27T14:10:55;11.82;;;4.30;;
66546;SDS011;53400;50.364;14.874;2024-01-27T14:13:21;11.68;;;3.25;;
66546;SDS011;53400;50.364;14.874;2024-01-27T14:15:51;10.95;;;3.80;;
66546;SDS011;53400;50.364;14.874;2024-01-27T14:18:18;8.32;;;3.83;;
66546;SDS011;53400;50.364;14.874;2024-01-27T14:20:46;12.40;;;3.85;;
66546;SDS011;53400;50.364;14.874;2024-01-27T14:23:13;13.45;;;3.85;;
66546;SDS011;53400;50.364;14.874;2024-01-27T14:25:39;9.93;;;3.75;;
66546;SDS011;53400;50.364;14.874;2024-01-27T14:28:06;8.82;;;3.40;;
66546;SDS011;53400;50.364;14.874;2024-01-27T14:30:36;10.18;;;3.10;;
66546;SDS011;53400;50.364;14.874;2024-01-27T14:33:02;8.63;;;3.08;;
66546;SDS011;53400;50.364;14.874;2024-01-27T14:35:28;8.73;;;3.50;;